Time;durP1;ratioP1;P1;durP2;ratioP2;P2;SDS_P1;SDS_P2;PMS_P1;PMS_P2;Temp;Humidity;BMP_temperature;BMP_pressure;BME280_temperature;BME280_humidity;BME280_pressure;Samples;Min_cycle;Max_cycle;Signal;HPM_P1;HPM_P2
2022/05/27 00:01:40;;;;;;;13.30;8.57;;;;;;;22.38;67.21;101149.97;4915845;29;20445;-82
2022/05/27 00:04:25;;;;;;;20.90;9.45;;;;;;;22.50;67.01;101146.09;4918754;29;20051;-82
2022/05/27 00:07:10;;;;;;;13.75;8.27;;;;;;;22.54;66.61;101144.13;4919261;29;20067;-81
2022/05/27 00:09:55;;;;;;;14.85;9.63;;;;;;;22.57;66.46;101143.34;4913364;29;20044;-82
2022/05/27 00:12:40;;;;;;;12.60;8.27;;;;;;;22.66;66.06;101143.78;4918699;29;20040;-82
2022/05/27 00:15:28;;;;;;;12.15;8.80;;;;;;;22.77;65.94;101143.91;4919062;29;20048;-81
2022/05/27 00:18:13;;;;;;;14.93;8.23;;;;;;;22.74;66.02;101145.47;4917216;29;20051;-82
2022/05/27 00:20:58;;;;;;;16.98;9.68;;;;;;;22.55;67.24;101142.97;4934681;29;20044;-82
2022/05/27 00:23:43;;;;;;;14.18;10.30;;;;;;;22.31;68.33;101138.00;4952668;23;20047;-77
2022/05/27 00:26:28;;;;;;;13.32;8.88;;;;;;;22.46;67.35;101148.03;4951427;28;20504;-76
2022/05/27 00:29:13;;;;;;;16.60;9.20;;;;;;;22.66;66.66;101145.78;4940698;28;20047;-77
2022/05/27 00:32:01;;;;;;;24.15;10.05;;;;;;;22.74;66.15;101141.91;4942696;29;20046;-79
2022/05/27 00:34:46;;;;;;;20.98;8.70;;;;;;;22.67;66.62;101141.81;4932050;29;20040;-79
2022/05/27 00:37:31;;;;;;;21.55;10.07;;;;;;;22.45;67.80;101136.13;4937509;29;20432;-79
2022/05/27 00:40:18;;;;;;;16.05;9.20;;;;;;;22.49;67.49;101131.44;4954417;28;20039;-77
2022/05/27 00:43:02;;;;;;;22.27;11.55;;;;;;;22.51;67.14;101137.38;4907513;29;20056;-78
2022/05/27 00:45:57;;;;;;;19.70;9.98;;;;;;;22.52;67.40;101135.41;4949326;28;20043;-80
2022/05/27 00:48:43;;;;;;;31.95;10.57;;;;;;;22.49;67.49;101122.31;4934417;29;20040;-78
2022/05/27 00:51:34;;;;;;;23.25;10.60;;;;;;;22.32;68.47;101128.53;4932532;29;20449;-78
2022/05/27 00:54:23;;;;;;;19.92;10.00;;;;;;;22.28;68.87;101130.47;4950315;28;20420;-80
2022/05/27 00:57:14;;;;;;;17.13;9.60;;;;;;;22.31;68.52;101132.47;4954014;28;20043;-78
2022/05/27 01:00:04;;;;;;;40.60;10.18;;;;;;;22.22;68.73;101124.50;4947449;28;20044;-78
2022/05/27 01:02:50;;;;;;;16.38;10.35;;;;;;;22.14;69.41;101120.09;4942573;28;20044;-80
2022/05/27 01:05:37;;;;;;;17.17;9.35;;;;;;;22.14;69.73;101122.88;4939644;29;20044;-78
2022/05/27 01:08:26;;;;;;;22.35;12.13;;;;;;;22.09;69.46;101121.25;4938299;29;20043;-79
2022/05/27 01:11:24;;;;;;;26.13;11.18;;;;;;;22.24;68.66;101132.44;4935489;29;20044;-79
2022/05/27 01:14:43;;;;;;;22.05;11.75;;;;;;;22.15;68.54;101129.97;4956798;28;20035;-79
2022/05/27 01:17:52;;;;;;;21.30;12.35;;;;;;;21.99;69.16;101121.16;4940127;29;20055;-79
2022/05/27 01:21:05;;;;;;;16.75;10.68;;;;;;;21.80;69.54;101129.63;4942224;29;20043;-79
2022/05/27 01:24:19;;;;;;;21.75;11.98;;;;;;;21.66;70.07;101119.22;4935350;29;20039;-79
2022/05/27 01:27:18;;;;;;;20.25;11.55;;;;;;;21.55;70.58;101116.34;4923306;29;20047;-79
2022/05/27 01:30:23;;;;;;;22.85;12.10;;;;;;;21.45;71.13;101111.50;4936147;29;20500;-79
2022/05/27 01:33:20;;;;;;;;;;;;;;;21.29;72.41;101108.94;4936594;29;20432;-78
2022/05/27 01:36:23;;;;;;;30.00;15.05;;;;;;;21.25;73.25;101115.63;4935328;29;20379;-79
2022/05/27 01:39:25;;;;;;;25.42;14.07;;;;;;;21.56;71.12;101106.88;4946126;28;20056;-75
2022/05/27 01:42:58;;;;;;;15.38;11.52;;;;;;;21.69;70.70;101101.84;4929002;29;20036;-78
2022/05/27 01:46:17;;;;;;;26.92;12.05;;;;;;;22.03;69.01;101097.84;4950276;28;20047;-80
2022/05/27 01:49:19;;;;;;;20.52;11.93;;;;;;;22.15;68.89;101102.25;4936314;29;20052;-79
2022/05/27 01:52:08;;;;;;;19.77;14.10;;;;;;;22.01;69.57;101107.69;4936935;29;20039;-79
2022/05/27 01:55:13;;;;;;;28.83;14.30;;;;;;;22.01;69.00;101097.41;4935186;29;20036;-78
2022/05/27 01:58:08;;;;;;;24.17;13.45;;;;;;;22.18;68.63;101095.97;4951796;28;20043;-79
2022/05/27 02:00:52;;;;;;;17.33;12.50;;;;;;;22.24;68.15;101088.91;4933430;29;20035;-79
2022/05/27 02:03:48;;;;;;;21.83;11.90;;;;;;;22.41;67.12;101087.41;4938939;28;20044;-80
2022/05/27 02:06:41;;;;;;;22.15;12.43;;;;;;;22.51;66.62;101075.59;4937617;29;20508;-79
2022/05/27 02:09:36;;;;;;;24.08;11.80;;;;;;;22.61;66.21;101077.63;4934293;29;20047;-79
2022/05/27 02:12:36;;;;;;;19.10;11.02;;;;;;;22.61;66.09;101085.94;4924627;29;20040;-78
2022/05/27 02:15:29;;;;;;;19.10;11.55;;;;;;;22.57;66.43;101074.84;4934367;29;20051;-78
2022/05/27 02:18:23;;;;;;;20.58;10.75;;;;;;;22.56;66.36;101066.91;4951757;28;20424;-77
2022/05/27 02:21:20;;;;;;;24.23;11.48;;;;;;;22.61;65.90;101061.78;4933184;29;20044;-80
2022/05/27 02:24:22;;;;;;;21.23;11.43;;;;;;;22.60;66.20;101060.19;4930703;29;20044;-79
2022/05/27 02:27:22;;;;;;;21.00;10.20;;;;;;;22.67;65.82;101062.22;4938362;29;20047;-80
2022/05/27 02:30:11;;;;;;;21.65;11.43;;;;;;;22.79;65.44;101050.81;4931331;29;20048;-80
2022/05/27 02:36:19;;;;;;;22.00;11.80;;;;;;;22.77;65.52;101044.06;4945783;28;20040;-77
2022/05/27 02:39:06;;;;;;;20.45;11.23;;;;;;;22.63;65.51;101032.88;4931320;29;20039;-78
2022/05/27 02:42:25;;;;;;;25.55;11.48;;;;;;;22.61;65.58;101041.59;4933963;29;20224;-78
2022/05/27 02:45:28;;;;;;;22.67;10.45;;;;;;;22.47;66.06;101035.97;4939310;29;20035;-79
2022/05/27 02:48:34;;;;;;;30.45;10.23;;;;;;;22.50;65.94;101038.75;4933127;29;20031;-78
2022/05/27 02:51:28;;;;;;;20.95;11.18;;;;;;;22.36;66.25;101029.56;4952420;28;20040;-78
2022/05/27 02:54:30;;;;;;;18.13;10.20;;;;;;;22.37;66.37;101031.97;4933886;29;20028;-79
2022/05/27 02:57:23;;;;;;;20.92;9.98;;;;;;;22.14;66.83;101035.00;4931688;29;20051;-79
2022/05/27 03:00:14;;;;;;;21.90;10.90;;;;;;;22.08;67.07;101032.97;4934458;29;20042;-79
2022/05/27 03:03:00;;;;;;;70.03;19.02;;;;;;;22.16;67.36;101027.09;4941451;28;20051;-75
2022/05/27 03:06:06;;;;;;;26.92;12.13;;;;;;;22.57;65.55;101036.03;4933461;29;20039;-75
2022/05/27 03:09:04;;;;;;;20.92;9.00;;;;;;;22.58;65.30;101021.00;4935730;29;20493;-76
2022/05/27 03:12:02;;;;;;;18.13;9.00;;;;;;;22.66;64.72;101015.47;4933598;29;20435;-76
2022/05/27 03:15:20;;;;;;;21.90;10.18;;;;;;;22.82;64.14;101013.97;4944408;28;20043;-75
2022/05/27 03:18:17;;;;;;;23.92;11.13;;;;;;;22.97;63.54;101010.06;4932252;29;20040;-74
2022/05/27 03:21:39;;;;;;;18.67;10.07;;;;;;;23.08;63.07;101014.84;4929368;29;20040;-76
2022/05/27 03:24:54;;;;;;;16.02;8.85;;;;;;;23.13;62.79;101017.22;4945323;29;20035;-77
2022/05/27 03:27:44;;;;;;;16.50;10.02;;;;;;;23.17;62.32;101020.81;4929585;29;20048;-75
2022/05/27 03:30:33;;;;;;;24.45;9.65;;;;;;;23.22;62.31;101026.75;4932504;29;20040;-75
2022/05/27 03:33:23;;;;;;;18.50;9.65;;;;;;;23.22;62.24;101024.00;4949816;28;20035;-74
2022/05/27 03:36:29;;;;;;;18.08;8.95;;;;;;;23.28;62.01;101030.75;4949400;28;20047;-75
2022/05/27 03:39:19;;;;;;;13.95;9.10;;;;;;;23.27;61.74;101025.59;4923522;29;20051;-76
2022/05/27 03:42:10;;;;;;;19.42;8.45;;;;;;;23.33;61.53;101032.34;4925118;29;20051;-75
2022/05/27 03:45:01;;;;;;;14.75;8.00;;;;;;;23.37;61.56;101030.34;4928671;29;20047;-75
2022/05/27 03:47:47;;;;;;;20.48;10.18;;;;;;;23.29;61.43;101032.34;4927006;29;20039;-74
2022/05/27 03:50:31;;;;;;;20.90;8.70;;;;;;;23.29;61.67;101026.00;4936268;29;20044;-74
2022/05/27 03:53:16;;;;;;;19.30;8.02;;;;;;;23.29;61.87;101032.34;4946747;28;20031;-74
2022/05/27 03:56:01;;;;;;;15.15;8.20;;;;;;;23.27;62.06;101029.16;4923994;29;20052;-74
2022/05/27 03:58:46;;;;;;;16.90;8.45;;;;;;;23.36;61.37;101026.00;4915842;29;20699;-74
2022/05/27 04:01:33;;;;;;;17.95;8.77;;;;;;;23.35;61.50;101024.41;4938122;29;20052;-74
2022/05/27 04:04:22;;;;;;;16.40;8.07;;;;;;;23.33;61.77;101022.03;4935045;29;20039;-74
2022/05/27 04:07:07;;;;;;;22.38;10.40;;;;;;;23.19;62.11;101022.00;4919872;29;20044;-73
2022/05/27 04:09:54;;;;;;;24.17;11.75;;;;;;;23.20;62.08;101022.81;4932972;29;20035;-74
2022/05/27 04:12:39;;;;;;;27.45;12.80;;;;;;;23.12;62.25;101021.19;4936233;29;20047;-75
2022/05/27 04:15:24;;;;;;;21.30;10.07;;;;;;;22.99;62.96;101013.25;4922495;29;20043;-76
2022/05/27 04:18:09;;;;;;;18.90;10.90;;;;;;;22.96;63.24;101019.56;4933639;29;20043;-75
2022/05/27 04:20:54;;;;;;;24.75;11.32;;;;;;;22.91;63.81;101031.03;4929012;29;20043;-74
2022/05/27 04:23:40;;;;;;;21.20;12.30;;;;;;;22.88;63.93;101023.50;4933900;29;20051;-74
2022/05/27 04:26:26;;;;;;;19.15;12.60;;;;;;;22.83;64.04;101020.31;4933822;29;20047;-74
2022/05/27 04:29:11;;;;;;;21.02;12.50;;;;;;;22.88;63.99;101031.84;4933010;29;20047;-73
2022/05/27 04:31:56;;;;;;;22.42;12.43;;;;;;;22.91;63.60;101030.25;4939640;29;20044;-74
2022/05/27 04:34:42;;;;;;;24.02;13.13;;;;;;;22.87;63.86;101030.25;4933053;29;20500;-75
2022/05/27 04:37:27;;;;;;;15.82;10.07;;;;;;;23.00;63.21;101031.50;4938204;29;20043;-73
2022/05/27 04:40:12;;;;;;;21.40;10.63;;;;;;;23.18;62.64;101031.53;4934179;29;20035;-74
2022/05/27 04:42:57;;;;;;;22.33;12.18;;;;;;;23.13;62.96;101028.34;4925509;29;20044;-73
2022/05/27 04:45:43;;;;;;;23.92;13.27;;;;;;;23.11;63.64;101030.72;4939900;28;20420;-74
2022/05/27 04:48:28;;;;;;;28.05;13.98;;;;;;;22.97;64.36;101032.25;4931591;29;20047;-76
2022/05/27 04:51:14;;;;;;;26.30;14.77;;;;;;;22.85;64.69;101032.63;4952005;28;20043;-74
2022/05/27 04:54:00;;;;;;;31.77;15.00;;;;;;;22.77;65.79;101031.00;4936752;29;20032;-76
2022/05/27 04:56:45;;;;;;;28.10;18.10;;;;;;;22.81;65.72;101036.53;4935112;29;20420;-75
2022/05/27 04:59:35;;;;;;;25.88;17.42;;;;;;;22.71;66.59;101029.78;4932908;29;20048;-73
2022/05/27 05:02:23;;;;;;;24.45;16.75;;;;;;;22.80;66.80;101041.31;4930796;29;20048;-75
2022/05/27 05:05:10;;;;;;;33.45;21.23;;;;;;;22.81;67.09;101039.31;4929213;29;20044;-75
2022/05/27 05:08:03;;;;;;;33.72;18.90;;;;;;;22.81;67.53;101039.31;4933014;29;20039;-73
2022/05/27 05:10:50;;;;;;;26.88;18.23;;;;;;;22.87;67.04;101046.09;4946385;28;20039;-74
2022/05/27 05:13:35;;;;;;;28.77;18.13;;;;;;;22.90;66.67;101040.56;4934409;29;20048;-80
2022/05/27 05:16:20;;;;;;;27.17;18.67;;;;;;;22.96;66.55;101041.75;4929793;29;20417;-74
2022/05/27 05:19:05;;;;;;;37.30;19.77;;;;;;;22.92;67.09;101040.16;4934145;29;20440;-74
2022/05/27 05:21:50;;;;;;;57.05;21.52;;;;;;;22.82;67.57;101041.72;4947438;28;20435;-75
2022/05/27 05:24:36;;;;;;;33.63;18.20;;;;;;;22.83;67.99;101050.81;4935133;29;20047;-74
2022/05/27 05:27:22;;;;;;;32.45;19.23;;;;;;;22.81;68.43;101053.97;4937452;29;20043;-75
2022/05/27 05:30:10;;;;;;;61.90;20.60;;;;;;;22.83;68.30;101054.41;4935519;29;20047;-75
2022/05/27 05:32:55;;;;;;;37.42;19.35;;;;;;;22.89;68.01;101057.59;4935928;29;20040;-74
2022/05/27 05:35:40;;;;;;;32.75;18.23;;;;;;;22.93;68.10;101059.19;4937435;29;20516;-76
2022/05/27 05:38:27;;;;;;;35.92;19.10;;;;;;;22.97;67.85;101051.69;4934567;29;20047;-77
2022/05/27 05:41:12;;;;;;;34.78;19.55;;;;;;;23.01;67.66;101054.44;4954997;28;20047;-77
2022/05/27 05:43:58;;;;;;;36.38;19.15;;;;;;;23.02;67.59;101067.13;4945740;29;20504;-76
2022/05/27 05:46:47;;;;;;;30.58;18.90;;;;;;;22.99;68.00;101074.28;4948224;28;20484;-76
2022/05/27 05:49:32;;;;;;;38.63;19.75;;;;;;;23.11;67.27;101077.88;4943702;29;20055;-76
2022/05/27 05:52:17;;;;;;;27.70;18.73;;;;;;;23.12;66.56;101077.47;4948287;29;20044;-76
2022/05/27 05:55:03;;;;;;;34.28;17.27;;;;;;;23.13;66.69;101079.06;4945443;29;20032;-78
2022/05/27 05:57:49;;;;;;;34.08;19.45;;;;;;;23.19;66.86;101074.75;4942946;29;20040;-79
2022/05/27 06:00:34;;;;;;;24.55;16.98;;;;;;;23.25;66.51;101075.16;4947932;29;20043;-76
2022/05/27 06:03:19;;;;;;;28.90;17.15;;;;;;;23.39;65.89;101069.63;4941262;29;20040;-74
2022/05/27 06:06:04;;;;;;;35.40;18.23;;;;;;;23.44;65.64;101074.78;4945495;29;20047;-76
2022/05/27 06:08:49;;;;;;;28.88;16.30;;;;;;;23.44;65.72;101072.00;4966078;28;20040;-74
2022/05/27 06:11:36;;;;;;;27.35;15.50;;;;;;;23.52;64.48;101062.53;4937728;28;20508;-76
2022/05/27 06:14:22;;;;;;;29.45;15.23;;;;;;;23.54;64.21;101065.72;4932480;28;20044;-77
2022/05/27 06:17:07;;;;;;;26.40;14.20;;;;;;;23.55;64.06;101075.63;4942024;28;20035;-79
2022/05/27 06:19:53;;;;;;;26.30;15.13;;;;;;;23.50;63.87;101070.47;4934400;28;20044;-77
2022/05/27 06:22:38;;;;;;;26.30;15.35;;;;;;;23.58;63.56;101065.72;4932281;28;20031;-74
2022/05/27 06:25:23;;;;;;;27.35;15.05;;;;;;;23.60;63.67;101069.69;4944566;23;20429;-81
2022/05/27 06:34:26;;;;;;;27.00;15.25;;;;;;;23.86;62.92;101071.31;4958285;28;20043;-81
2022/05/27 06:37:14;;;;;;;22.55;13.52;;;;;;;24.03;62.13;101081.59;4959011;28;20504;-81
2022/05/27 06:39:59;;;;;;;28.60;16.27;;;;;;;24.07;62.16;101081.63;4974049;28;20043;-81
2022/05/27 06:42:44;;;;;;;32.03;15.88;;;;;;;24.04;62.35;101083.19;4956536;28;20051;-80
2022/05/27 06:45:30;;;;;;;35.10;16.38;;;;;;;24.15;61.86;101078.41;4948423;28;20043;-82
2022/05/27 06:48:15;;;;;;;30.75;16.35;;;;;;;24.16;61.71;101079.22;4950505;28;20043;-82
2022/05/27 06:51:05;;;;;;;29.00;15.35;;;;;;;24.22;62.19;101074.88;4935300;29;20040;-83
2022/05/27 06:53:51;;;;;;;27.30;14.80;;;;;;;24.32;61.45;101082.41;4938690;28;20047;-82
2022/05/27 06:56:38;;;;;;;22.60;15.13;;;;;;;24.38;61.56;101077.25;4932183;29;20292;-81
2022/05/27 06:59:23;;;;;;;26.65;15.75;;;;;;;24.39;61.46;101082.38;4946088;28;20048;-81
2022/05/27 07:02:09;;;;;;;25.25;14.90;;;;;;;24.41;61.89;101084.75;4939407;28;20039;-81
2022/05/27 07:04:54;;;;;;;26.98;12.85;;;;;;;24.43;61.54;101085.94;4942859;29;20051;-81
2022/05/27 07:07:38;;;;;;;29.52;13.35;;;;;;;24.40;61.61;101083.97;4939924;28;20043;-80
2022/05/27 07:10:23;;;;;;;26.48;14.20;;;;;;;24.50;61.07;101082.34;4954386;28;20048;-81
2022/05/27 07:13:09;;;;;;;28.33;15.25;;;;;;;24.64;61.61;101097.00;4937380;29;20035;-82
2022/05/27 07:15:54;;;;;;;26.30;13.13;;;;;;;24.70;61.35;101092.63;4957319;28;20036;-81
2022/05/27 07:18:39;;;;;;;26.23;14.32;;;;;;;24.72;61.29;101089.44;4953219;28;20039;-81
2022/05/27 07:21:25;;;;;;;27.75;15.38;;;;;;;24.83;61.03;101083.84;4936629;28;20051;-81
2022/05/27 07:24:13;;;;;;;19.60;14.13;;;;;;;24.81;60.74;101078.69;4939039;29;20043;-81
2022/05/27 07:26:58;;;;;;;25.88;15.15;;;;;;;24.82;60.69;101091.41;4942900;28;20050;-81
2022/05/27 07:29:43;;;;;;;54.45;15.32;;;;;;;24.84;60.81;101088.22;4957803;28;20051;-81
2022/05/27 07:32:27;;;;;;;;;;;;;;;24.91;60.61;101074.31;4971520;28;20043;-83
2022/05/27 07:35:12;;;;;;;26.23;15.73;;;;;;;24.92;60.16;101081.47;4963350;28;19915;-81
2022/05/27 07:37:57;;;;;;;35.20;13.82;;;;;;;24.97;60.24;101076.25;4957709;29;20267;-81
2022/05/27 07:40:42;;;;;;;;;;;;;;;25.02;59.94;101075.06;4966965;28;20043;-81
2022/05/27 07:43:26;;;;;;;42.28;14.93;;;;;;;24.94;60.57;101081.84;4940356;29;19918;-81
2022/05/27 07:46:13;;;;;;;23.58;13.05;;;;;;;24.99;59.94;101076.63;4948955;28;20043;-81
2022/05/27 07:48:59;;;;;;;23.90;14.07;;;;;;;25.01;60.79;101079.81;4946569;29;20047;-81
2022/05/27 07:51:44;;;;;;;26.40;15.20;;;;;;;25.06;60.35;101081.38;4930208;29;20047;-81
2022/05/27 07:54:29;;;;;;;26.65;13.70;;;;;;;25.08;60.01;101079.78;4938405;29;20044;-81
2022/05/27 07:57:23;;;;;;;24.17;15.02;;;;;;;25.17;60.00;101079.34;4937894;29;20047;-81
2022/05/27 08:00:12;;;;;;;29.17;13.20;;;;;;;25.11;59.90;101089.31;4942613;29;20055;-80
2022/05/27 08:02:58;;;;;;;26.08;13.43;;;;;;;25.11;60.01;101078.19;4938424;29;20039;-80
2022/05/27 08:05:43;;;;;;;21.52;12.38;;;;;;;25.11;59.44;101086.53;4945012;29;20043;-81
2022/05/27 08:08:29;;;;;;;23.58;12.60;;;;;;;25.20;59.81;101081.31;4956974;28;20047;-85
2022/05/27 08:11:14;;;;;;;34.15;14.70;;;;;;;25.17;59.87;101087.69;4945617;28;20044;-84
2022/05/27 08:14:01;;;;;;;31.45;13.70;;;;;;;25.24;59.56;101079.31;4930465;29;20035;-81
2022/05/27 08:16:46;;;;;;;29.90;12.02;;;;;;;25.19;59.20;101084.53;4936639;28;20047;-81
2022/05/27 08:19:31;;;;;;;25.00;13.07;;;;;;;25.36;58.93;101080.81;4969573;28;20043;-78
2022/05/27 08:22:16;;;;;;;24.25;11.75;;;;;;;25.34;58.69;101083.25;4956906;28;20047;-78
2022/05/27 08:25:00;;;;;;;;;;;;;;;25.41;58.94;101083.97;4952772;28;20048;-80
2022/05/27 08:27:45;;;;;;;24.70;13.63;;;;;;;25.49;58.29;101087.53;4953445;29;19915;-80
2022/05/27 08:30:34;;;;;;;30.88;12.27;;;;;;;25.46;58.48;101077.97;4956993;29;20047;-80
2022/05/27 08:33:19;;;;;;;27.25;15.10;;;;;;;25.60;58.52;101076.34;4939439;29;20047;-80
2022/05/27 08:39:08;;;;;;;29.75;12.95;;;;;;;25.84;57.67;101069.78;4952334;28;20508;-80
2022/05/27 08:42:06;;;;;;;18.58;9.95;;;;;;;25.85;56.88;101060.97;4944275;29;20044;-81
2022/05/27 08:45:29;;;;;;;20.70;10.25;;;;;;;25.92;57.12;101062.94;4942484;29;20509;-80
2022/05/27 08:48:15;;;;;;;19.73;10.27;;;;;;;25.92;56.77;101060.94;4933748;29;20039;-81
2022/05/27 08:51:07;;;;;;;16.30;9.00;;;;;;;25.87;56.21;101060.59;4931955;28;20051;-80
2022/05/27 08:53:53;;;;;;;21.33;10.20;;;;;;;25.81;56.76;101054.66;4953175;28;20040;-80
2022/05/27 08:59:53;;;;;;;22.48;10.18;;;;;;;25.91;57.05;101047.41;4935546;29;20044;-81
2022/05/27 09:02:41;;;;;;;27.20;11.88;;;;;;;25.94;57.08;101055.75;4937229;29;20044;-81
2022/05/27 09:05:39;;;;;;;24.50;10.75;;;;;;;25.90;57.02;101057.00;4941451;29;20056;-80
2022/05/27 09:08:25;;;;;;;32.30;10.93;;;;;;;25.84;57.49;101045.50;4947099;29;20044;-80
2022/05/27 09:11:47;;;;;;;26.60;10.82;;;;;;;25.83;57.13;101040.31;4961217;29;20035;-81
2022/05/27 09:14:35;;;;;;;40.90;10.85;;;;;;;25.84;57.64;101039.91;4936725;29;20044;-80
2022/05/27 09:17:38;;;;;;;23.75;9.40;;;;;;;25.94;56.69;101024.31;4942437;29;20044;-81
2022/05/27 09:20:47;;;;;;;153.32;32.67;;;;;;;26.87;54.94;101021.31;4942191;29;20047;-83
2022/05/27 09:23:51;;;;;;;18.23;8.27;;;;;;;31.60;41.55;101022.88;4948760;29;20040;-84
2022/05/27 09:26:51;;;;;;;19.80;7.68;;;;;;;34.07;36.56;101017.47;4939029;29;20043;-83
2022/05/27 09:29:59;;;;;;;24.30;8.30;;;;;;;33.76;35.49;101014.78;4959720;28;20431;-80
2022/05/27 09:32:55;;;;;;;23.55;8.30;;;;;;;31.39;41.13;101010.28;4933071;29;20040;-80
2022/05/27 09:35:45;;;;;;;19.48;7.22;;;;;;;30.05;43.75;101011.44;4941763;28;20075;-80
2022/05/27 09:38:34;;;;;;;23.20;7.43;;;;;;;28.99;46.71;100994.41;4944196;28;20055;-80
2022/05/27 09:41:29;;;;;;;26.20;8.07;;;;;;;28.66;47.23;100991.47;4937241;29;20154;-81
2022/05/27 09:44:29;;;;;;;16.83;8.00;;;;;;;28.07;49.09;100983.88;4952971;28;20044;-81
2022/05/27 09:47:15;;;;;;;20.15;8.52;;;;;;;27.56;49.96;100987.19;4940250;29;20040;-80
2022/05/27 09:50:07;;;;;;;18.20;7.47;;;;;;;27.52;50.24;100986.47;4938158;29;20079;-81
2022/05/27 09:52:57;;;;;;;23.75;8.15;;;;;;;27.34;50.78;100980.31;4940057;29;20046;-82
2022/05/27 09:55:59;;;;;;;18.45;7.53;;;;;;;27.08;51.77;100976.31;4920732;29;20059;-79
2022/05/27 09:58:46;;;;;;;21.67;9.27;;;;;;;26.57;52.84;100969.84;4949781;29;20036;-80
2022/05/27 10:01:32;;;;;;;31.83;10.15;;;;;;;26.83;52.49;100962.72;4935735;29;20048;-79
2022/05/27 10:04:18;;;;;;;24.75;8.82;;;;;;;26.92;51.69;100960.22;4942853;29;20024;-79
2022/05/27 10:07:04;;;;;;;25.15;10.50;;;;;;;26.63;53.19;100959.00;4935470;29;20050;-81
2022/05/27 10:09:49;;;;;;;45.17;13.48;;;;;;;26.14;54.76;100947.22;4936346;29;20043;-81
2022/05/27 10:12:34;;;;;;;35.10;12.05;;;;;;;26.10;54.95;100948.47;4949978;29;20456;-81
2022/05/27 10:15:38;;;;;;;21.80;10.95;;;;;;;26.12;55.02;100944.06;4950764;29;20036;-81
2022/05/27 10:18:27;;;;;;;27.67;11.15;;;;;;;26.19;54.95;100935.63;4940862;29;20047;-79
2022/05/27 10:21:14;;;;;;;22.30;11.00;;;;;;;26.37;54.41;100944.59;4944820;29;20043;-81
2022/05/27 10:24:15;;;;;;;32.40;11.57;;;;;;;26.41;54.60;100940.97;4940690;29;20052;-81
2022/05/27 10:27:08;;;;;;;24.20;8.48;;;;;;;26.37;54.38;100941.78;4940299;29;20532;-81
2022/05/27 10:29:58;;;;;;;24.33;10.18;;;;;;;26.41;54.02;100929.81;4942427;29;20050;-82
2022/05/27 10:32:44;;;;;;;15.82;7.72;;;;;;;26.36;54.28;100931.06;4952537;29;20039;-82
2022/05/27 10:35:30;;;;;;;13.73;6.90;;;;;;;26.49;53.64;100917.34;4942169;29;20701;-82
2022/05/27 10:38:28;;;;;;;16.98;9.13;;;;;;;26.87;51.91;100912.47;4948131;28;20035;-83
2022/05/27 10:41:34;;;;;;;29.27;8.95;;;;;;;27.44;49.81;100913.09;4947537;28;20048;-82
2022/05/27 10:44:31;;;;;;;;;;;;;;;27.61;49.32;100912.03;4942910;29;20035;-81
2022/05/27 10:47:33;;;;;;;18.15;7.60;;;;;;;27.57;49.86;100916.13;4940659;29;19919;-83
2022/05/27 10:50:32;;;;;;;19.05;7.70;;;;;;;27.57;49.39;100907.72;4939938;29;20043;-81
2022/05/27 10:53:35;;;;;;;23.58;8.27;;;;;;;27.45;49.78;100905.50;4939766;29;20040;-83
2022/05/27 10:56:43;;;;;;;21.05;6.93;;;;;;;27.29;50.35;100897.00;4950604;28;20445;-82
2022/05/27 11:02:51;;;;;;;18.35;9.38;;;;;;;27.56;50.43;100895.75;4953409;29;20058;-79
2022/05/27 11:06:00;;;;;;;14.93;7.93;;;;;;;27.78;49.21;100887.00;4961109;28;20050;-83
2022/05/27 11:09:22;;;;;;;14.07;6.57;;;;;;;27.44;49.52;100890.75;4940000;29;20043;-81
2022/05/27 11:15:58;;;;;;;16.23;7.68;;;;;;;27.01;51.13;100882.31;4940919;29;20043;-80
2022/05/27 11:19:12;;;;;;;21.40;7.97;;;;;;;27.04;51.41;100881.47;4921039;29;20123;-84
2022/05/27 11:22:37;;;;;;;35.13;9.77;;;;;;;27.25;50.72;100877.53;4919549;29;20133;-81
2022/05/27 11:25:36;;;;;;;30.47;8.30;;;;;;;27.30;50.88;100867.88;4918048;29;20060;-82
2022/05/27 11:29:00;;;;;;;26.10;7.78;;;;;;;27.24;51.76;100864.78;4916604;29;20272;-80
2022/05/27 11:32:01;;;;;;;18.58;7.63;;;;;;;27.40;51.02;100850.13;4935774;29;20421;-80
2022/05/27 11:34:51;;;;;;;21.30;9.07;;;;;;;27.60;50.38;100856.56;4947897;29;20040;-80
2022/05/27 11:38:01;;;;;;;16.88;8.35;;;;;;;27.55;50.30;100851.47;4953169;28;20043;-80
2022/05/27 11:41:00;;;;;;;17.13;7.85;;;;;;;27.72;50.06;100844.78;4956172;28;20052;-81
2022/05/27 11:44:03;;;;;;;22.45;10.10;;;;;;;28.05;49.41;100840.88;4939552;29;20051;-80
2022/05/27 11:46:54;;;;;;;17.15;7.95;;;;;;;28.20;48.77;100837.78;4940164;28;20047;-79
2022/05/27 11:49:39;;;;;;;20.20;7.30;;;;;;;27.75;48.94;100831.94;4935475;28;20501;-79
2022/05/27 11:52:45;;;;;;;15.82;6.55;;;;;;;27.42;49.78;100817.00;4944112;29;20058;-80
2022/05/27 11:55:51;;;;;;;18.02;7.03;;;;;;;27.15;51.29;100822.66;4947496;28;20035;-81
2022/05/27 11:59:03;;;;;;;11.63;6.05;;;;;;;27.20;51.00;100814.59;4939324;29;20116;-80
2022/05/27 12:02:01;;;;;;;21.23;9.63;;;;;;;27.49;50.11;100808.44;4944750;29;20043;-80
2022/05/27 12:05:02;;;;;;;16.52;6.45;;;;;;;27.39;50.56;100807.44;4934116;29;20063;-80
2022/05/27 12:08:20;;;;;;;19.90;7.90;;;;;;;27.45;50.27;100804.94;4938406;29;20039;-81
2022/05/27 12:11:43;;;;;;;13.80;7.93;;;;;;;27.17;51.12;100803.47;4933293;29;20054;-80
2022/05/27 12:14:38;;;;;;;14.57;7.38;;;;;;;27.12;50.90;100795.59;4944898;28;20077;-79
2022/05/27 12:17:36;;;;;;;14.43;7.13;;;;;;;27.06;51.26;100798.09;4947927;28;20051;-79
2022/05/27 12:20:28;;;;;;;32.13;9.75;;;;;;;27.16;50.37;100787.94;4948512;28;20039;-80
2022/05/27 12:23:13;;;;;;;23.98;8.10;;;;;;;27.17;50.56;100793.06;4949964;29;20039;-81
2022/05/27 12:26:01;;;;;;;48.53;11.85;;;;;;;27.02;51.79;100779.81;4985185;23;20054;-63
2022/05/27 12:28:46;;;;;;;75.80;14.98;;;;;;;26.78;51.93;100782.56;4975865;28;20050;-63
2022/05/27 12:31:32;;;;;;;76.65;15.80;;;;;;;26.92;51.92;100778.78;4975965;28;20405;-63
2022/05/27 12:34:26;;;;;;;31.65;10.15;;;;;;;27.45;49.52;100771.41;4964279;28;20051;-62
2022/05/27 12:37:22;;;;;;;152.13;14.27;;;;;;;27.71;48.96;100764.13;4937149;29;20039;-63
2022/05/27 12:40:18;;;;;;;38.70;10.45;;;;;;;27.48;49.48;100762.19;4939967;29;20044;-63
2022/05/27 12:43:17;;;;;;;52.88;11.35;;;;;;;27.33;50.60;100758.09;4952357;29;20410;-63
2022/05/27 12:46:02;;;;;;;42.08;11.77;;;;;;;27.19;50.45;100754.34;4956132;29;20043;-65
2022/05/27 12:48:47;;;;;;;38.25;9.93;;;;;;;27.09;50.82;100760.13;4956098;29;20047;-63
2022/05/27 12:51:37;;;;;;;50.08;11.82;;;;;;;26.96;51.15;100759.19;4956206;29;20070;-62
2022/05/27 12:54:46;;;;;;;46.63;9.50;;;;;;;26.76;52.20;100753.53;4955959;29;20035;-63
2022/05/27 13:00:56;;;;;;;39.17;8.30;;;;;;;26.94;51.33;100739.28;4955987;29;20050;-63
2022/05/27 13:03:51;;;;;;;19.15;7.38;;;;;;;26.87;51.23;100723.44;4956289;29;20061;-64
2022/05/27 13:06:41;;;;;;;27.40;7.93;;;;;;;26.89;51.53;100732.19;4955839;29;20047;-64
2022/05/27 13:09:36;;;;;;;23.27;7.65;;;;;;;26.86;50.90;100721.06;4955678;29;20062;-62
2022/05/27 13:12:44;;;;;;;26.85;7.22;;;;;;;26.79;51.31;100714.41;4955556;29;20050;-63
2022/05/27 13:15:29;;;;;;;20.55;7.15;;;;;;;26.69;51.63;100709.78;4960992;28;20066;-63
2022/05/27 13:18:37;;;;;;;30.58;7.45;;;;;;;26.92;51.23;100711.78;4955451;29;20039;-63
2022/05/27 13:21:41;;;;;;;12.48;5.60;;;;;;;27.02;50.56;100698.88;4955562;29;20051;-63
2022/05/27 13:24:40;;;;;;;20.50;7.80;;;;;;;27.05;50.40;100700.78;4955317;28;20039;-63
2022/05/27 13:27:28;;;;;;;17.13;6.57;;;;;;;26.78;51.12;100686.91;4955342;28;20416;-62
2022/05/27 13:30:14;;;;;;;20.48;8.15;;;;;;;27.04;48.37;100685.25;4955181;29;20040;-63
2022/05/27 13:33:05;;;;;;;17.25;6.38;;;;;;;27.10;49.77;100681.53;4955359;29;20051;-63
2022/05/27 13:35:52;;;;;;;14.63;6.18;;;;;;;27.08;49.41;100670.00;4955157;29;20514;-63